Time;durP1;ratioP1;P1;durP2;ratioP2;P2;SDS_P1;SDS_P2;PMS_P1;PMS_P2;Temp;Humidity;BMP_temperature;BMP_pressure;BME280_temperature;BME280_humidity;BME280_pressure;Samples;Min_cycle;Max_cycle;Signal;HPM_P1;HPM_P2
2022/01/01 00:01:25;;;;;;;82.97;48.15;;;12.00;99.90;;;;;;5093109;28;20274;-63
2022/01/01 00:03:51;;;;;;;91.88;51.33;;;12.00;99.90;;;;;;5074642;28;20416;-63
2022/01/01 00:06:17;;;;;;;80.00;49.97;;;12.00;99.90;;;;;;5092950;28;20090;-62
2022/01/01 00:08:43;;;;;;;85.80;51.20;;;12.00;99.90;;;;;;5093057;28;20274;-62
2022/01/01 00:11:08;;;;;;;77.17;50.30;;;11.90;99.90;;;;;;5093235;28;20466;-63
2022/01/01 00:13:34;;;;;;;78.17;45.10;;;11.90;99.90;;;;;;5092686;28;20039;-63
2022/01/01 00:16:00;;;;;;;85.37;47.80;;;11.90;99.90;;;;;;5093427;28;20286;-64
2022/01/01 00:18:25;;;;;;;79.95;45.08;;;11.80;99.90;;;;;;5077902;28;20425;-63
2022/01/01 00:20:51;;;;;;;70.80;39.90;;;11.80;99.90;;;;;;5075184;28;20035;-63
2022/01/01 00:23:16;;;;;;;73.90;37.47;;;11.70;99.90;;;;;;5080458;28;20780;-63
2022/01/01 00:25:42;;;;;;;62.15;30.50;;;11.70;99.90;;;;;;5102428;28;20052;-64
2022/01/01 00:28:08;;;;;;;50.73;27.73;;;11.70;99.90;;;;;;5094732;28;20051;-64
2022/01/01 00:30:33;;;;;;;54.65;29.15;;;11.70;99.90;;;;;;5093646;28;20843;-62
2022/01/01 00:32:59;;;;;;;58.80;29.90;;;11.70;99.90;;;;;;5093083;28;20074;-64
2022/01/01 00:35:24;;;;;;;59.47;32.50;;;11.70;99.90;;;;;;5101736;28;20666;-64
2022/01/01 00:37:50;;;;;;;61.87;32.83;;;11.70;99.90;;;;;;5093678;28;20036;-64
2022/01/01 00:40:16;;;;;;;57.73;30.33;;;11.70;99.90;;;;;;5091677;28;20670;-64
2022/01/01 00:42:41;;;;;;;60.90;30.57;;;11.70;99.90;;;;;;5092815;28;20032;-64
2022/01/01 00:45:07;;;;;;;67.53;32.80;;;11.70;99.90;;;;;;5091388;28;20365;-65
2022/01/01 00:47:33;;;;;;;62.92;31.95;;;11.70;99.90;;;;;;5092219;28;20295;-63
2022/01/01 00:49:58;;;;;;;73.93;35.73;;;11.70;99.90;;;;;;5091525;28;20064;-63
2022/01/01 00:52:24;;;;;;;75.87;40.60;;;11.70;99.90;;;;;;5100834;28;20374;-62
2022/01/01 00:54:49;;;;;;;70.53;39.87;;;11.70;99.90;;;;;;5098153;28;20290;-64
2022/01/01 00:57:15;;;;;;;72.47;40.47;;;11.70;99.90;;;;;;5101917;28;20058;-64
2022/01/01 00:59:40;;;;;;;173.32;153.70;;;11.70;99.90;;;;;;5091473;28;20063;-63
2022/01/01 01:02:06;;;;;;;80.68;45.13;;;11.70;99.90;;;;;;5104559;28;20054;-62
2022/01/01 01:04:32;;;;;;;72.93;47.43;;;11.70;99.90;;;;;;5091977;28;20512;-63
2022/01/01 01:06:57;;;;;;;87.60;49.10;;;11.70;99.90;;;;;;5090912;28;20293;-62
2022/01/01 01:09:23;;;;;;;76.43;43.40;;;11.70;99.90;;;;;;5092060;28;20140;-62
2022/01/01 01:11:51;;;;;;;78.77;42.60;;;11.70;99.90;;;;;;5102854;28;20745;-63
2022/01/01 01:14:24;;;;;;;82.05;42.97;;;11.70;99.90;;;;;;5073760;28;20298;-63
2022/01/01 01:16:52;;;;;;;74.10;41.28;;;11.70;99.90;;;;;;5094735;28;20040;-63
2022/01/01 01:19:18;;;;;;;63.08;37.80;;;11.60;99.90;;;;;;5111556;28;20043;-63
2022/01/01 01:21:44;;;;;;;65.13;35.13;;;11.70;99.90;;;;;;5111868;28;20031;-64
2022/01/01 01:24:12;;;;;;;72.97;35.17;;;11.70;99.90;;;;;;5092568;28;20529;-64
2022/01/01 01:26:37;;;;;;;82.80;35.83;;;11.70;99.90;;;;;;5083926;28;20079;-64
2022/01/01 01:29:04;;;;;;;70.43;39.93;;;11.70;99.90;;;;;;5075471;28;20460;-62
2022/01/01 01:31:30;;;;;;;64.57;35.83;;;11.70;99.90;;;;;;5091369;28;20970;-63
2022/01/01 01:33:56;;;;;;;;;;;11.60;99.90;;;;;;5107493;28;20036;-63
2022/01/01 01:36:22;;;;;;;61.67;32.78;;;11.70;99.90;;;;;;5086885;28;19965;-63
2022/01/01 01:38:47;;;;;;;66.57;30.77;;;11.70;99.90;;;;;;5104883;28;20127;-62
2022/01/01 01:41:13;;;;;;;68.70;29.80;;;11.60;99.90;;;;;;5111222;28;20386;-62
2022/01/01 01:43:39;;;;;;;60.75;28.88;;;11.70;99.90;;;;;;5100576;28;20074;-62
2022/01/01 01:46:05;;;;;;;72.70;30.77;;;11.70;99.90;;;;;;5110934;28;20080;-63
2022/01/01 01:48:33;;;;;;;54.08;27.65;;;11.60;99.90;;;;;;5092221;28;20473;-64
2022/01/01 01:50:59;;;;;;;62.55;29.63;;;11.70;99.90;;;;;;5079793;28;20035;-63
2022/01/01 01:53:25;;;;;;;;;;;11.70;99.90;;;;;;5094785;28;20032;-64
2022/01/01 01:55:51;;;;;;;62.70;26.58;;;11.70;99.90;;;;;;5092313;28;19920;-64
2022/01/01 01:58:17;;;;;;;57.40;28.07;;;11.70;99.90;;;;;;5091181;28;20129;-63
2022/01/01 02:01:18;;;;;;;59.53;27.17;;;11.70;99.90;;;;;;5107362;28;20050;-63
2022/01/01 02:03:40;;;;;;;55.03;26.77;;;11.70;99.90;;;;;;5108455;28;20080;-63
2022/01/01 02:06:06;;;;;;;62.00;26.30;;;11.70;99.90;;;;;;5109961;28;20078;-63
2022/01/01 02:08:33;;;;;;;66.90;29.27;;;11.70;99.90;;;;;;5110756;28;20453;-64
2022/01/01 02:10:59;;;;;;;;;;;11.70;99.90;;;;;;5092923;28;20032;-62
2022/01/01 02:18:51;;;;;;;60.97;30.33;;;11.60;99.90;;;;;;5091272;28;20036;-62
2022/01/01 02:21:18;;;;;;;62.83;30.65;;;11.60;99.90;;;;;;5109268;28;20085;-62
2022/01/01 02:23:46;;;;;;;71.75;33.35;;;11.50;99.90;;;;;;5109224;28;20035;-62
2022/01/01 02:26:15;;;;;;;69.13;31.85;;;11.50;99.90;;;;;;5073845;28;20493;-64
2022/01/01 02:28:46;;;;;;;76.40;34.00;;;11.50;99.90;;;;;;5090144;28;20040;-63
2022/01/01 02:31:12;;;;;;;68.65;32.63;;;11.50;99.90;;;;;;5105950;28;20038;-64
2022/01/01 02:33:38;;;;;;;65.55;31.45;;;11.40;99.90;;;;;;5109360;28;20067;-64
2022/01/01 02:36:05;;;;;;;67.93;33.05;;;11.40;99.90;;;;;;5104919;28;20071;-64
2022/01/01 02:38:35;;;;;;;69.03;33.58;;;11.40;99.90;;;;;;5110172;28;20039;-64
2022/01/01 02:41:01;;;;;;;73.40;34.50;;;11.40;99.90;;;;;;5096156;28;20036;-64
2022/01/01 02:43:27;;;;;;;71.55;35.63;;;11.40;99.90;;;;;;5091382;28;20088;-63
2022/01/01 02:45:54;;;;;;;75.20;36.70;;;11.40;99.90;;;;;;5102134;28;20122;-63
2022/01/01 02:48:20;;;;;;;77.68;39.78;;;11.40;99.90;;;;;;5110049;28;20048;-64
2022/01/01 02:50:46;;;;;;;78.70;38.13;;;11.40;99.90;;;;;;5081101;28;20496;-62
2022/01/01 02:53:16;;;;;;;76.43;39.67;;;11.40;99.90;;;;;;5072381;28;20078;-64
2022/01/01 02:55:43;;;;;;;74.93;41.45;;;11.40;99.90;;;;;;5100772;28;20036;-63
2022/01/01 02:58:10;;;;;;;91.72;41.42;;;11.40;99.90;;;;;;5090570;28;20036;-64
2022/01/01 03:00:36;;;;;;;80.75;43.30;;;11.50;99.90;;;;;;5097496;28;20047;-64
2022/01/01 03:03:02;;;;;;;85.50;43.25;;;11.50;99.90;;;;;;5109672;28;20484;-63
2022/01/01 03:05:30;;;;;;;85.38;46.08;;;11.50;99.90;;;;;;5099848;28;20043;-62
2022/01/01 03:07:56;;;;;;;87.40;47.05;;;11.60;99.90;;;;;;5114784;28;20083;-64
2022/01/01 03:10:22;;;;;;;82.20;45.65;;;11.60;99.90;;;;;;5094107;28;20031;-64
2022/01/01 03:12:47;;;;;;;93.22;51.35;;;11.60;99.90;;;;;;5114367;28;20093;-63
2022/01/01 03:15:13;;;;;;;100.27;53.87;;;11.70;99.90;;;;;;5099250;28;20748;-63
2022/01/01 03:17:38;;;;;;;98.10;51.60;;;11.60;99.90;;;;;;5114224;28;20277;-63
2022/01/01 03:20:05;;;;;;;87.80;46.90;;;11.60;99.90;;;;;;5113257;28;20085;-63
2022/01/01 03:22:31;;;;;;;81.70;43.33;;;11.70;99.90;;;;;;5094246;28;20038;-64
2022/01/01 03:24:57;;;;;;;90.55;49.97;;;11.60;99.90;;;;;;5104307;28;20043;-63
2022/01/01 03:27:22;;;;;;;97.07;49.83;;;11.70;99.90;;;;;;5093736;28;20047;-64
2022/01/01 03:29:48;;;;;;;85.85;47.58;;;11.70;99.90;;;;;;5093905;28;20044;-64
2022/01/01 03:32:15;;;;;;;82.50;48.80;;;11.70;99.90;;;;;;5110234;28;20385;-65
2022/01/01 03:34:42;;;;;;;88.63;47.28;;;11.70;99.90;;;;;;5106632;28;20115;-63
2022/01/01 03:37:08;;;;;;;94.25;50.30;;;11.60;99.90;;;;;;5109166;28;20084;-64
2022/01/01 03:39:34;;;;;;;90.07;48.35;;;11.60;99.90;;;;;;5081272;28;20036;-64
2022/01/01 03:41:59;;;;;;;82.47;46.13;;;11.70;99.90;;;;;;5094106;28;20066;-64
2022/01/01 03:44:25;;;;;;;91.80;48.87;;;11.60;99.90;;;;;;5094960;28;20039;-63
2022/01/01 03:46:54;;;;;;;96.43;50.17;;;11.60;99.90;;;;;;5109498;28;20035;-64
2022/01/01 03:49:19;;;;;;;90.78;50.17;;;11.70;99.90;;;;;;5119694;28;20054;-62
2022/01/01 03:51:45;;;;;;;75.93;44.13;;;11.60;99.90;;;;;;5103303;28;20032;-64
2022/01/01 03:54:12;;;;;;;89.03;48.58;;;11.60;99.90;;;;;;5079046;28;20046;-64
2022/01/01 03:56:38;;;;;;;89.68;49.78;;;11.60;99.90;;;;;;5104460;28;20040;-62
2022/01/01 03:59:04;;;;;;;86.25;48.33;;;11.60;99.90;;;;;;5093147;28;20118;-65
2022/01/01 04:01:29;;;;;;;82.43;45.53;;;11.60;99.90;;;;;;5099658;28;20031;-62
2022/01/01 04:03:55;;;;;;;87.15;48.50;;;11.60;99.90;;;;;;5113355;28;20036;-64
2022/01/01 04:06:20;;;;;;;84.20;49.22;;;11.60;99.90;;;;;;5098768;28;20027;-65
2022/01/01 04:08:46;;;;;;;98.07;52.13;;;11.60;99.90;;;;;;5112996;28;20043;-64
2022/01/01 04:11:11;;;;;;;88.87;49.30;;;11.60;99.90;;;;;;5109553;28;20449;-62
2022/01/01 04:13:37;;;;;;;91.00;51.83;;;11.60;99.90;;;;;;5111596;28;20281;-63
2022/01/01 04:16:03;;;;;;;91.28;51.90;;;11.60;99.90;;;;;;5109863;28;20121;-64
2022/01/01 04:18:38;;;;;;;93.43;53.15;;;11.60;99.90;;;;;;5093021;28;20439;-64
2022/01/01 04:21:06;;;;;;;99.95;51.92;;;11.60;99.90;;;;;;5094366;28;20044;-63
2022/01/01 04:23:33;;;;;;;84.72;52.00;;;11.60;99.90;;;;;;5094748;28;20046;-61
2022/01/01 04:25:58;;;;;;;95.15;54.00;;;11.60;99.90;;;;;;5095499;28;20036;-63
2022/01/01 04:28:25;;;;;;;99.13;53.58;;;11.60;99.90;;;;;;5112474;28;20048;-63
2022/01/01 04:30:51;;;;;;;86.37;50.27;;;11.70;99.90;;;;;;5112779;28;20065;-63
2022/01/01 04:33:16;;;;;;;89.82;49.55;;;11.70;99.90;;;;;;5096955;28;20047;-63
2022/01/01 04:35:42;;;;;;;90.17;52.80;;;11.60;99.90;;;;;;5082144;28;20032;-62
2022/01/01 04:38:17;;;;;;;90.30;51.50;;;11.60;99.90;;;;;;5093263;28;20035;-63
2022/01/01 04:40:43;;;;;;;82.63;48.72;;;11.60;99.90;;;;;;5092700;28;20278;-62
2022/01/01 04:43:08;;;;;;;85.43;52.47;;;11.60;99.90;;;;;;5090541;28;20043;-63
2022/01/01 04:45:34;;;;;;;92.03;53.07;;;11.60;99.90;;;;;;5111043;28;20107;-63
2022/01/01 04:48:00;;;;;;;93.27;52.63;;;11.60;99.90;;;;;;5079974;28;20051;-62
2022/01/01 04:50:25;;;;;;;86.75;52.10;;;11.60;99.90;;;;;;5092721;28;20028;-62
2022/01/01 04:52:53;;;;;;;91.67;53.20;;;11.60;99.90;;;;;;5104337;28;20039;-62
2022/01/01 04:55:18;;;;;;;94.20;50.35;;;11.60;99.90;;;;;;5102045;28;20040;-63
2022/01/01 04:57:44;;;;;;;97.57;53.40;;;11.60;99.90;;;;;;5101787;28;20032;-63
2022/01/01 05:00:10;;;;;;;88.13;50.27;;;11.60;99.90;;;;;;5112201;28;20730;-62
2022/01/01 05:02:35;;;;;;;85.03;50.97;;;11.60;99.90;;;;;;5085168;28;20089;-63
2022/01/01 05:05:01;;;;;;;85.83;50.57;;;11.60;99.90;;;;;;5096584;28;20031;-63
2022/01/01 05:07:27;;;;;;;86.43;48.63;;;11.60;99.90;;;;;;5105070;28;20066;-63
2022/01/01 05:09:52;;;;;;;83.77;50.37;;;11.60;99.90;;;;;;5091979;28;20040;-63
2022/01/01 05:12:18;;;;;;;80.15;49.05;;;11.60;99.90;;;;;;5077905;28;20292;-62
2022/01/01 05:14:44;;;;;;;82.97;47.23;;;11.60;99.90;;;;;;5109941;28;20032;-65
2022/01/01 05:17:09;;;;;;;81.78;45.92;;;11.60;99.90;;;;;;5109146;28;20293;-62
2022/01/01 05:19:35;;;;;;;76.97;42.22;;;11.60;99.90;;;;;;5076893;28;20299;-63
2022/01/01 05:22:01;;;;;;;79.97;42.00;;;11.60;99.90;;;;;;5092533;28;20036;-65
2022/01/01 05:24:26;;;;;;;80.87;40.73;;;11.60;99.90;;;;;;5111455;28;20785;-63
2022/01/01 05:26:52;;;;;;;77.60;40.03;;;11.60;99.90;;;;;;5111228;28;20277;-64
2022/01/01 05:29:17;;;;;;;73.53;39.80;;;11.70;99.90;;;;;;5094815;28;20023;-63
2022/01/01 05:31:43;;;;;;;66.67;38.27;;;11.70;99.90;;;;;;5111933;28;20040;-64
2022/01/01 05:34:09;;;;;;;70.77;38.20;;;11.70;99.90;;;;;;5094156;28;20294;-63
2022/01/01 05:36:34;;;;;;;70.32;36.75;;;11.70;99.90;;;;;;5091067;28;20040;-63
2022/01/01 05:39:00;;;;;;;71.67;36.13;;;11.70;99.90;;;;;;5107110;28;20111;-63
2022/01/01 05:41:25;;;;;;;67.63;35.03;;;11.70;99.90;;;;;;5092215;28;20036;-64
2022/01/01 05:43:51;;;;;;;61.23;33.53;;;11.70;99.90;;;;;;5104994;28;20287;-65
2022/01/01 05:46:16;;;;;;;71.37;34.50;;;11.70;99.90;;;;;;5110944;28;20281;-62
2022/01/01 05:48:42;;;;;;;60.83;32.30;;;11.70;99.90;;;;;;5100292;28;20507;-62
2022/01/01 05:51:08;;;;;;;64.85;35.33;;;11.70;99.90;;;;;;5090885;28;20084;-63
2022/01/01 05:53:34;;;;;;;64.13;34.53;;;11.70;99.90;;;;;;5092409;28;20031;-64
2022/01/01 05:56:00;;;;;;;66.90;33.38;;;11.60;99.90;;;;;;5090374;28;20052;-65
2022/01/01 05:58:25;;;;;;;64.57;29.80;;;11.70;99.90;;;;;;5102640;28;20030;-63
2022/01/01 06:00:51;;;;;;;59.65;30.23;;;11.60;99.90;;;;;;5106352;28;20035;-63
2022/01/01 06:03:18;;;;;;;58.97;29.57;;;11.60;99.90;;;;;;5107005;28;20028;-63
2022/01/01 06:05:44;;;;;;;57.78;27.65;;;11.60;99.90;;;;;;5110851;28;20459;-63
2022/01/01 06:08:09;;;;;;;60.92;29.02;;;11.60;99.90;;;;;;5087824;28;20040;-64
2022/01/01 06:10:35;;;;;;;52.93;27.90;;;11.60;99.90;;;;;;5090636;28;20141;-63
2022/01/01 06:13:04;;;;;;;60.45;28.08;;;11.60;99.90;;;;;;5074152;28;20047;-63
2022/01/01 06:15:29;;;;;;;57.80;28.08;;;11.60;99.90;;;;;;5090741;28;20114;-63
2022/01/01 06:17:55;;;;;;;65.53;28.80;;;11.60;99.90;;;;;;5073976;28;20134;-63
2022/01/01 06:20:20;;;;;;;52.37;27.50;;;11.60;99.90;;;;;;5109824;28;20277;-64
2022/01/01 06:22:46;;;;;;;55.23;27.60;;;11.60;99.90;;;;;;5110288;28;20038;-62
2022/01/01 06:25:12;;;;;;;61.53;28.57;;;11.60;99.90;;;;;;5090333;28;20312;-63
2022/01/01 06:27:37;;;;;;;56.57;27.13;;;11.60;99.90;;;;;;5090463;28;20534;-65
2022/01/01 06:30:03;;;;;;;52.97;28.60;;;11.60;99.90;;;;;;5107579;28;20411;-64
2022/01/01 06:32:32;;;;;;;61.17;26.15;;;11.60;99.90;;;;;;5108067;28;20044;-63
2022/01/01 06:34:59;;;;;;;54.22;25.20;;;11.50;99.90;;;;;;5106262;28;20035;-64
2022/01/01 06:37:24;;;;;;;52.15;25.55;;;11.60;99.90;;;;;;5111723;28;20067;-64
2022/01/01 06:39:50;;;;;;;58.20;26.60;;;11.60;99.90;;;;;;5100675;28;20035;-63
2022/01/01 06:42:16;;;;;;;57.00;27.30;;;11.60;99.90;;;;;;5092531;28;20457;-64
2022/01/01 06:44:42;;;;;;;48.88;27.27;;;11.60;99.90;;;;;;5094013;28;20109;-63
2022/01/01 06:47:08;;;;;;;52.97;26.17;;;11.60;99.90;;;;;;5072280;28;20054;-63
2022/01/01 06:49:34;;;;;;;60.10;26.20;;;11.60;99.90;;;;;;5101338;28;20047;-63
2022/01/01 06:52:00;;;;;;;59.38;25.85;;;11.60;99.90;;;;;;5110134;28;20032;-63
2022/01/01 06:54:25;;;;;;;62.43;24.87;;;11.60;99.90;;;;;;5101635;28;20081;-62
2022/01/01 06:56:51;;;;;;;61.87;26.73;;;11.60;99.90;;;;;;5109709;28;20317;-64
2022/01/01 06:59:16;;;;;;;56.20;26.10;;;11.60;99.90;;;;;;5101689;28;20043;-63
2022/01/01 07:01:42;;;;;;;59.10;27.47;;;11.60;99.90;;;;;;5092947;28;20282;-62
2022/01/01 07:04:07;;;;;;;61.00;26.77;;;11.60;99.90;;;;;;5103337;28;20032;-63
2022/01/01 07:06:34;;;;;;;60.90;27.60;;;11.60;99.90;;;;;;5071676;28;20046;-63
2022/01/01 07:09:00;;;;;;;;;;;11.60;99.90;;;;;;5075593;28;20277;-63
2022/01/01 07:11:25;;;;;;;49.85;24.65;;;11.60;99.90;;;;;;5092194;28;20277;-62
2022/01/01 07:13:52;;;;;;;57.05;25.67;;;11.50;99.90;;;;;;5095832;28;20047;-63
2022/01/01 07:16:17;;;;;;;;;;;11.50;99.90;;;;;;5110597;28;20046;-63
2022/01/01 07:18:43;;;;;;;56.72;26.50;;;11.50;99.90;;;;;;5108861;28;20313;-62
2022/01/01 07:21:09;;;;;;;56.15;25.60;;;11.50;99.90;;;;;;5089927;28;20051;-62
2022/01/01 07:23:34;;;;;;;60.60;25.27;;;11.50;99.90;;;;;;5100112;28;20032;-64
2022/01/01 07:26:00;;;;;;;58.13;26.20;;;11.50;99.90;;;;;;5091874;28;20837;-63
2022/01/01 07:28:25;;;;;;;55.77;24.70;;;11.60;99.90;;;;;;5090199;28;20040;-64
2022/01/01 07:30:51;;;;;;;58.80;26.40;;;11.50;99.90;;;;;;5106321;28;20044;-64
2022/01/01 07:33:17;;;;;;;55.73;28.43;;;11.50;99.90;;;;;;5108425;28;20285;-64
2022/01/01 07:35:42;;;;;;;58.43;27.37;;;11.50;99.90;;;;;;5076361;28;20044;-64
2022/01/01 07:38:09;;;;;;;60.10;28.90;;;11.50;99.90;;;;;;5089708;28;20030;-63
2022/01/01 07:40:35;;;;;;;64.22;27.83;;;11.50;99.90;;;;;;5102504;28;20036;-63
2022/01/01 07:43:12;;;;;;;57.83;28.02;;;11.50;99.90;;;;;;5102634;28;20064;-62
2022/01/01 07:45:37;;;;;;;;;;;11.50;99.90;;;;;;5101535;28;20512;-64
2022/01/01 07:48:04;;;;;;;57.60;27.85;;;11.50;99.90;;;;;;5093311;28;19919;-64
2022/01/01 07:50:29;;;;;;;;;;;11.60;99.90;;;;;;5089809;28;20294;-64
2022/01/01 07:52:55;;;;;;;62.28;29.50;;;11.60;99.90;;;;;;5092417;28;19916;-63
2022/01/01 07:55:20;;;;;;;62.47;30.50;;;11.60;99.90;;;;;;5093174;28;20036;-64
2022/01/01 07:57:46;;;;;;;64.40;31.07;;;11.60;99.90;;;;;;5075225;28;20032;-63
2022/01/01 08:00:12;;;;;;;60.90;30.65;;;11.60;99.90;;;;;;5103748;28;20484;-64
2022/01/01 08:02:42;;;;;;;76.68;33.63;;;11.60;99.90;;;;;;5096541;28;20032;-65
2022/01/01 08:05:09;;;;;;;72.55;33.15;;;11.60;99.90;;;;;;5101263;28;20035;-64
2022/01/01 08:07:34;;;;;;;67.28;33.72;;;11.60;99.90;;;;;;5074832;28;20047;-64
2022/01/01 08:10:00;;;;;;;65.53;31.30;;;11.70;99.90;;;;;;5093275;28;20036;-64
2022/01/01 08:12:25;;;;;;;71.10;33.47;;;11.70;99.90;;;;;;5093093;28;20294;-63
2022/01/01 08:14:54;;;;;;;74.27;33.03;;;11.70;99.90;;;;;;5092885;28;20078;-63
2022/01/01 08:17:19;;;;;;;68.85;32.40;;;11.70;99.90;;;;;;5082944;28;20293;-65
2022/01/01 08:19:46;;;;;;;69.53;32.67;;;11.80;99.90;;;;;;5113204;28;20403;-63
2022/01/01 08:22:13;;;;;;;64.97;30.65;;;11.80;99.90;;;;;;5094494;28;20079;-64
2022/01/01 08:24:39;;;;;;;70.10;33.90;;;11.80;99.90;;;;;;5092937;28;20083;-64
2022/01/01 08:27:05;;;;;;;66.90;32.05;;;11.80;99.90;;;;;;5092647;28;20032;-63
2022/01/01 08:29:31;;;;;;;58.80;33.22;;;11.80;99.90;;;;;;5092856;28;20048;-64
2022/01/01 08:31:57;;;;;;;60.95;31.85;;;11.90;99.90;;;;;;5093619;28;20123;-64
2022/01/01 08:34:23;;;;;;;61.47;31.92;;;11.90;99.90;;;;;;5103356;28;20173;-64
2022/01/01 08:36:49;;;;;;;;;;;11.90;99.90;;;;;;5112237;28;20096;-63
2022/01/01 08:39:15;;;;;;;63.25;32.20;;;11.90;99.90;;;;;;5112555;28;20469;-63
2022/01/01 08:41:41;;;;;;;;;;;11.90;99.90;;;;;;5090654;28;20070;-65
2022/01/01 08:44:07;;;;;;;64.88;32.72;;;12.00;99.90;;;;;;5092358;28;19916;-63
2022/01/01 08:46:33;;;;;;;52.57;28.30;;;12.00;99.90;;;;;;5108327;28;20050;-64
2022/01/01 08:48:59;;;;;;;69.15;30.75;;;12.00;99.90;;;;;;5112224;28;20174;-64
2022/01/01 08:51:25;;;;;;;;;;;12.10;99.90;;;;;;5080095;28;20070;-63
2022/01/01 08:53:50;;;;;;;63.67;29.48;;;12.10;99.90;;;;;;5094224;28;20011;-64
2022/01/01 08:56:16;;;;;;;47.55;26.15;;;12.10;99.90;;;;;;5099489;28;20040;-62
2022/01/01 08:58:42;;;;;;;54.10;26.02;;;12.20;99.90;;;;;;5092120;28;20111;-64
2022/01/01 09:01:08;;;;;;;50.13;26.23;;;12.20;99.90;;;;;;5093852;28;20388;-63
2022/01/01 09:03:35;;;;;;;51.08;25.15;;;12.20;99.90;;;;;;5077970;28;20051;-62
2022/01/01 09:06:02;;;;;;;58.28;27.48;;;12.20;99.90;;;;;;5102826;28;20126;-64
2022/01/01 09:08:29;;;;;;;47.33;25.15;;;12.20;99.90;;;;;;5096139;28;20089;-65
2022/01/01 09:10:54;;;;;;;40.15;21.85;;;12.30;99.90;;;;;;5093741;28;20082;-62
2022/01/01 09:13:20;;;;;;;42.43;21.23;;;12.30;99.90;;;;;;5075245;28;20040;-65
2022/01/01 09:15:46;;;;;;;37.75;22.50;;;12.30;99.90;;;;;;5091200;28;20139;-64
2022/01/01 09:18:11;;;;;;;38.65;21.67;;;12.30;99.90;;;;;;5073783;28;20067;-64
2022/01/01 09:20:37;;;;;;;39.20;21.23;;;12.30;99.90;;;;;;5091822;28;20040;-64
2022/01/01 09:23:02;;;;;;;35.60;19.23;;;12.40;99.90;;;;;;5093061;28;20282;-63
2022/01/01 09:25:28;;;;;;;39.22;20.73;;;12.40;99.90;;;;;;5093637;28;20401;-65
2022/01/01 09:27:53;;;;;;;38.97;20.13;;;12.40;99.90;;;;;;5091687;28;20044;-63
2022/01/01 09:30:20;;;;;;;38.57;18.30;;;12.40;99.90;;;;;;5091312;28;20306;-65
2022/01/01 09:32:45;;;;;;;31.75;17.67;;;12.40;99.90;;;;;;5094575;28;20460;-64
2022/01/01 09:35:11;;;;;;;30.27;17.83;;;12.40;99.90;;;;;;5097998;28;20075;-63
2022/01/01 09:37:37;;;;;;;37.47;17.33;;;12.50;99.90;;;;;;5098486;28;20028;-63
2022/01/01 09:40:03;;;;;;;34.53;17.70;;;12.50;99.90;;;;;;5094739;28;20036;-63
2022/01/01 09:42:30;;;;;;;36.75;17.70;;;12.50;99.90;;;;;;5080706;28;20649;-64
2022/01/01 09:44:57;;;;;;;36.55;15.45;;;12.50;99.90;;;;;;5076604;28;20037;-60
2022/01/01 09:47:23;;;;;;;28.10;14.50;;;12.60;99.90;;;;;;5077217;28;20108;-64
2022/01/01 09:49:49;;;;;;;39.78;15.48;;;12.60;99.90;;;;;;5077171;28;20485;-63
2022/01/01 09:52:16;;;;;;;31.13;14.95;;;12.70;99.90;;;;;;5073884;28;20047;-65
2022/01/01 09:54:42;;;;;;;26.02;13.75;;;12.70;99.90;;;;;;5071322;28;20067;-62
2022/01/01 09:57:10;;;;;;;28.90;13.18;;;12.90;99.90;;;;;;5074803;28;20358;-62
2022/01/01 09:59:37;;;;;;;24.33;12.15;;;13.20;99.90;;;;;;5082362;28;20040;-61
2022/01/01 10:02:03;;;;;;;20.92;11.05;;;13.50;99.90;;;;;;5074957;28;20047;-57
2022/01/01 10:04:41;;;;;;;20.60;11.55;;;13.70;99.90;;;;;;5056290;28;20546;-60
2022/01/01 10:07:07;;;;;;;19.15;9.63;;;13.70;99.90;;;;;;5075893;28;20044;-63
2022/01/01 10:09:34;;;;;;;25.98;10.75;;;13.80;99.90;;;;;;5073597;28;20423;-63
2022/01/01 10:12:01;;;;;;;23.00;10.25;;;13.90;99.90;;;;;;5077159;28;20084;-63
2022/01/01 10:14:35;;;;;;;;;;;13.90;99.90;;;;;;5072504;28;20044;-64
2022/01/01 10:17:12;;;;;;;15.40;8.93;;;13.80;99.90;;;;;;5053082;28;19990;-63
2022/01/01 10:19:39;;;;;;;;;;;13.70;99.90;;;;;;5079075;28;20051;-65
2022/01/01 10:22:13;;;;;;;15.93;7.85;;;13.60;99.90;;;;;;5053257;28;19923;-63
2022/01/01 10:27:43;;;;;;;20.15;8.23;;;13.40;99.90;;;;;;5014740;28;20049;-64
2022/01/01 10:30:21;;;;;;;18.60;7.82;;;13.30;99.90;;;;;;5075902;28;20323;-64
2022/01/01 10:33:10;;;;;;;21.75;8.30;;;13.30;99.90;;;;;;5080289;28;20040;-64
2022/01/01 10:35:47;;;;;;;21.35;7.95;;;13.20;99.90;;;;;;5076685;28;20076;-62
2022/01/01 10:38:16;;;;;;;16.25;8.35;;;13.20;99.90;;;;;;5080376;28;20248;-63
2022/01/01 10:40:43;;;;;;;19.23;7.20;;;13.10;99.90;;;;;;5073054;28;20397;-62
2022/01/01 10:43:10;;;;;;;16.60;7.72;;;13.10;99.90;;;;;;5077224;28;20044;-63
2022/01/01 10:45:47;;;;;;;20.13;7.93;;;13.10;99.90;;;;;;5069375;28;20131;-62
2022/01/01 10:48:29;;;;;;;16.33;7.60;;;13.10;99.90;;;;;;5055277;28;20131;-62
2022/01/01 10:50:56;;;;;;;15.90;7.30;;;13.10;99.90;;;;;;5076835;28;20448;-62
2022/01/01 10:53:24;;;;;;;15.05;7.07;;;13.00;99.90;;;;;;5076811;28;20046;-64
2022/01/01 10:55:55;;;;;;;22.10;7.53;;;13.00;99.90;;;;;;5068598;28;20079;-62
2022/01/01 10:58:29;;;;;;;19.02;6.63;;;13.00;99.90;;;;;;5069072;28;20093;-61
2022/01/01 11:01:04;;;;;;;12.32;6.55;;;13.00;99.90;;;;;;5073379;28;20075;-62
2022/01/01 11:03:36;;;;;;;15.98;5.97;;;13.00;99.90;;;;;;5069067;28;20040;-61
2022/01/01 11:06:08;;;;;;;12.13;6.35;;;13.00;99.90;;;;;;5072958;28;20045;-61
2022/01/01 11:08:35;;;;;;;16.05;6.60;;;13.00;99.90;;;;;;5068306;28;20055;-61
2022/01/01 11:11:02;;;;;;;12.38;5.72;;;13.00;99.90;;;;;;5069516;28;20033;-61
2022/01/01 11:13:28;;;;;;;13.15;5.70;;;13.00;99.90;;;;;;5072817;28;20438;-63
2022/01/01 11:15:54;;;;;;;12.35;5.50;;;13.00;99.90;;;;;;5068293;28;20053;-61
2022/01/01 11:18:22;;;;;;;10.95;5.75;;;13.00;99.90;;;;;;5071748;28;20093;-62
2022/01/01 11:20:49;;;;;;;13.23;5.15;;;13.00;99.90;;;;;;5080111;28;20405;-62
2022/01/01 11:23:14;;;;;;;15.30;6.88;;;13.00;99.90;;;;;;5071857;28;20089;-62
2022/01/01 11:25:41;;;;;;;13.57;5.93;;;13.00;99.90;;;;;;5055095;28;20123;-62
2022/01/01 11:28:10;;;;;;;13.73;5.22;;;13.00;99.90;;;;;;5073519;28;20044;-61
2022/01/01 11:30:41;;;;;;;18.05;7.75;;;13.00;99.90;;;;;;5075560;28;20642;-63
2022/01/01 11:33:09;;;;;;;11.63;5.25;;;13.00;99.90;;;;;;5077838;28;20060;-57
2022/01/01 11:35:43;;;;;;;20.88;6.82;;;13.00;99.90;;;;;;5062423;28;20159;-61
2022/01/01 11:38:16;;;;;;;14.02;6.05;;;13.00;99.90;;;;;;5074058;28;20036;-62
2022/01/01 11:40:43;;;;;;;13.30;6.18;;;12.90;99.90;;;;;;5080858;28;20559;-62
2022/01/01 11:43:38;;;;;;;14.70;6.60;;;13.00;99.90;;;;;;5074029;28;20032;-62
2022/01/01 11:46:07;;;;;;;14.38;6.68;;;12.90;99.90;;;;;;5078554;28;20036;-59
2022/01/01 11:48:43;;;;;;;13.68;6.18;;;13.00;99.90;;;;;;5076971;28;20035;-59
2022/01/01 11:51:24;;;;;;;13.93;6.43;;;13.00;99.90;;;;;;5088312;28;20028;-61
2022/01/01 11:54:09;;;;;;;13.27;6.57;;;13.00;99.90;;;;;;5091626;28;20040;-61
2022/01/01 11:56:50;;;;;;;16.17;7.35;;;13.00;99.90;;;;;;5074820;28;20041;-62
2022/01/01 11:59:28;;;;;;;14.00;6.38;;;13.00;99.90;;;;;;5075946;28;20040;-61
2022/01/01 12:02:00;;;;;;;14.13;6.65;;;13.00;99.90;;;;;;5104015;28;20036;-59
2022/01/01 12:04:37;;;;;;;11.50;6.25;;;13.00;99.90;;;;;;5096966;28;20040;-60
2022/01/01 12:07:12;;;;;;;13.38;5.82;;;13.10;99.90;;;;;;5092829;28;20043;-61
2022/01/01 12:10:06;;;;;;;16.27;7.07;;;13.10;99.90;;;;;;5093286;28;20043;-59
2022/01/01 12:12:38;;;;;;;14.57;6.57;;;13.10;99.90;;;;;;5093001;28;20093;-59
2022/01/01 12:15:16;;;;;;;13.02;6.55;;;13.10;99.90;;;;;;5092608;28;20076;-60
2022/01/01 12:17:43;;;;;;;18.13;7.20;;;13.20;99.90;;;;;;5092909;28;20614;-58
2022/01/01 12:20:14;;;;;;;17.45;7.03;;;13.20;99.90;;;;;;5093160;28;20116;-60
2022/01/01 12:22:46;;;;;;;18.35;6.95;;;13.30;99.90;;;;;;5107245;28;20434;-62
2022/01/01 12:25:23;;;;;;;15.73;6.63;;;13.30;99.90;;;;;;5101640;28;20036;-61
2022/01/01 12:27:51;;;;;;;15.75;7.38;;;13.30;99.90;;;;;;5118137;28;20059;-63
2022/01/01 12:30:33;;;;;;;19.92;7.80;;;13.20;99.90;;;;;;5110738;28;20035;-57
2022/01/01 12:32:59;;;;;;;16.13;6.50;;;13.20;99.90;;;;;;5085520;28;20047;-62
2022/01/01 12:35:37;;;;;;;22.08;7.85;;;13.20;99.90;;;;;;5107571;28;20081;-60
2022/01/01 12:38:09;;;;;;;15.63;7.32;;;13.10;99.90;;;;;;5095170;28;20420;-62
2022/01/01 12:40:36;;;;;;;13.18;6.32;;;13.10;99.90;;;;;;5093783;28;20073;-62
2022/01/01 12:43:11;;;;;;;13.15;5.68;;;13.10;99.90;;;;;;5112545;28;20051;-62